createdAt,value
2018-04-17T00:00:07.498Z,100993.11
2018-04-17T00:01:14.308Z,100991.78
2018-04-17T00:02:21.151Z,100988.61
2018-04-17T00:03:27.482Z,100992.81
2018-04-17T00:04:38.468Z,100991.06
2018-04-17T00:05:49.471Z,100982.84
2018-04-17T00:06:56.523Z,100985.16
2018-04-17T00:08:05.652Z,100989.87
2018-04-17T00:09:17.530Z,100986.70
2018-04-17T00:10:23.847Z,100990.36
2018-04-17T00:11:30.055Z,100992.33
2018-04-17T00:12:36.499Z,100990.87
2018-04-17T00:13:42.881Z,100990.66
2018-04-17T00:14:49.197Z,100992.61
2018-04-17T00:15:55.605Z,100987.92
2018-04-17T00:17:02.031Z,100989.98
2018-04-17T00:18:08.435Z,100989.89
2018-04-17T00:19:14.956Z,100991.30
2018-04-17T00:20:21.898Z,100993.92
2018-04-17T00:21:28.702Z,100997.62
2018-04-17T00:22:36.482Z,100998.35
2018-04-17T00:23:42.961Z,100990.00
2018-04-17T00:24:49.592Z,100995.50
2018-04-17T00:25:56.491Z,100998.02
2018-04-17T00:27:03.019Z,100999.61
2018-04-17T00:28:09.321Z,100994.48
2018-04-17T00:29:17.707Z,100998.17
2018-04-17T00:30:24.414Z,101001.34
2018-04-17T00:31:30.532Z,101002.67
2018-04-17T00:32:37.142Z,100999.20
2018-04-17T00:33:43.557Z,101006.33
2018-04-17T00:34:49.971Z,101001.39
2018-04-17T00:35:56.383Z,101009.77
2018-04-17T00:37:03.205Z,101010.13
2018-04-17T00:38:10.566Z,101017.03
2018-04-17T00:39:17.595Z,101011.62
2018-04-17T00:40:24.197Z,101013.26
2018-04-17T00:41:30.809Z,101013.91
2018-04-17T00:42:37.327Z,101011.60
2018-04-17T00:43:43.739Z,101020.27
2018-04-17T00:44:50.256Z,101018.05
2018-04-17T00:45:56.799Z,101022.41
2018-04-17T00:47:03.389Z,101014.34
2018-04-17T00:48:10.427Z,101025.13
2018-04-17T00:49:16.945Z,101029.70
2018-04-17T00:50:23.759Z,101027.50
2018-04-17T00:51:30.178Z,101024.91
2018-04-17T00:52:36.586Z,101034.41
2018-04-17T00:54:09.160Z,101038.30
2018-04-17T00:55:15.614Z,101037.22
2018-04-17T00:56:22.130Z,101039.40
2018-04-17T00:57:28.646Z,101036.70
2018-04-17T00:58:35.654Z,101046.75
2018-04-17T00:59:42.190Z,101040.53
2018-04-17T01:00:48.910Z,101044.20
2018-04-17T01:01:55.223Z,101043.70
2018-04-17T01:03:02.362Z,101040.94
2018-04-17T01:04:10.407Z,101050.20
2018-04-17T01:05:16.928Z,101044.84
2018-04-17T01:06:23.541Z,101044.66
2018-04-17T01:07:29.813Z,101051.67
2018-04-17T01:08:36.270Z,101053.08
2018-04-17T01:09:42.477Z,101056.17
2018-04-17T01:10:49.570Z,101054.80
2018-04-17T01:11:56.978Z,101052.53
2018-04-17T01:13:03.862Z,101057.15
2018-04-17T01:14:10.394Z,101058.86
2018-04-17T01:15:16.805Z,101060.94
2018-04-17T01:16:23.317Z,101053.96
2018-04-17T01:17:29.534Z,101061.73
2018-04-17T01:18:35.921Z,101062.34
2018-04-17T01:19:42.826Z,101058.18
2018-04-17T01:20:49.178Z,101065.80
2018-04-17T01:21:55.586Z,101064.17
2018-04-17T01:23:02.217Z,101069.53
2018-04-17T01:24:08.729Z,101061.66
2018-04-17T01:25:14.937Z,101068.54
2018-04-17T01:26:21.961Z,101074.09
2018-04-17T01:27:28.474Z,101078.47
2018-04-17T01:28:35.506Z,101079.67
2018-04-17T01:29:42.596Z,101076.04
2018-04-17T01:30:48.958Z,101074.30
2018-04-17T01:31:55.572Z,101076.47
2018-04-17T01:33:01.911Z,101077.39
2018-04-17T01:34:08.183Z,101079.05
2018-04-17T01:35:14.490Z,101072.10
2018-04-17T01:36:21.022Z,101077.37
2018-04-17T01:37:27.352Z,101075.55
2018-04-17T01:38:34.569Z,101076.85
2018-04-17T01:39:40.983Z,101080.05
2018-04-17T01:40:47.395Z,101085.84
2018-04-17T01:41:54.682Z,101080.81
2018-04-17T01:43:01.402Z,101080.16
2018-04-17T01:44:07.866Z,101087.03
2018-04-17T01:45:14.878Z,101080.90
2018-04-17T01:46:21.905Z,101086.16
2018-04-17T01:47:28.444Z,101094.77
2018-04-17T01:48:35.156Z,101086.33
2018-04-17T01:49:41.575Z,101093.70
2018-04-17T01:50:48.106Z,101089.66
2018-04-17T01:51:55.120Z,101090.61
2018-04-17T01:53:01.330Z,101094.11
2018-04-17T01:54:08.406Z,101089.68
2018-04-17T01:55:14.876Z,101094.43
2018-04-17T01:56:21.853Z,101100.19
2018-04-17T01:57:28.516Z,101099.80
2018-04-17T01:58:34.631Z,101095.44
2018-04-17T01:59:41.048Z,101098.17
2018-04-17T02:00:47.452Z,101094.58
2018-04-17T02:01:54.179Z,101099.68
2018-04-17T02:03:00.394Z,101100.04
2018-04-17T02:04:06.506Z,101102.22
2018-04-17T02:05:13.554Z,101107.69
2018-04-17T02:06:19.886Z,101105.16
2018-04-17T02:07:26.353Z,101111.30
2018-04-17T02:08:37.779Z,101114.70
2018-04-17T02:09:44.743Z,101112.33
2018-04-17T02:10:52.274Z,101112.83
2018-04-17T02:11:59.680Z,101112.81
2018-04-17T02:13:06.303Z,101112.16
2018-04-17T02:14:15.997Z,101109.58
2018-04-17T02:15:22.098Z,101114.69
2018-04-17T02:16:28.516Z,101110.05
2018-04-17T02:17:35.131Z,101112.88
2018-04-17T02:18:41.654Z,101119.02
2018-04-17T02:19:48.297Z,101119.00
2018-04-17T02:20:54.580Z,101111.90
2018-04-17T02:22:01.211Z,101106.84
2018-04-17T02:23:07.496Z,101116.50
2018-04-17T02:24:17.915Z,101117.05
2018-04-17T02:25:24.811Z,101109.72
2018-04-17T02:26:31.870Z,101119.34
2018-04-17T02:27:38.386Z,101113.46
2018-04-17T02:28:45.563Z,101119.52
2018-04-17T02:29:52.856Z,101120.89
2018-04-17T02:30:59.977Z,101126.14
2018-04-17T02:32:05.488Z,101124.79
2018-04-17T02:33:12.002Z,101125.61
2018-04-17T02:34:18.207Z,101124.95
2018-04-17T02:35:24.718Z,101132.05
2018-04-17T02:36:31.138Z,101133.77
2018-04-17T02:37:37.652Z,101133.03
2018-04-17T02:38:43.963Z,101129.95
2018-04-17T02:39:50.166Z,101128.63
2018-04-17T02:40:56.589Z,101129.48
2018-04-17T02:42:03.463Z,101134.84
2018-04-17T02:43:10.551Z,101131.77
2018-04-17T02:44:17.031Z,101131.36
2018-04-17T02:45:23.681Z,101135.23
2018-04-17T02:46:29.987Z,101140.58
2018-04-17T02:47:36.513Z,101142.12
2018-04-17T02:48:43.115Z,101142.84
2018-04-17T02:49:49.925Z,101145.39
2018-04-17T02:50:56.462Z,101146.16
2018-04-17T02:52:02.870Z,101146.94
2018-04-17T02:53:08.989Z,101146.56
2018-04-17T02:54:15.468Z,101151.38
2018-04-17T02:55:27.090Z,101149.53
2018-04-17T02:56:36.413Z,101158.86
2018-04-17T02:57:42.817Z,101153.66
2018-04-17T02:58:49.446Z,101161.58
2018-04-17T02:59:56.098Z,101157.96
2018-04-17T03:01:02.696Z,101151.64
2018-04-17T03:02:08.676Z,101153.34
2018-04-17T03:03:15.918Z,101155.53
2018-04-17T03:04:22.322Z,101156.22
2018-04-17T03:05:28.646Z,101152.78
2018-04-17T03:06:35.428Z,101155.63
2018-04-17T03:07:42.584Z,101160.95
2018-04-17T03:08:51.162Z,101154.81
2018-04-17T03:09:58.292Z,101163.51
2018-04-17T03:11:04.918Z,101160.34
2018-04-17T03:12:12.242Z,101162.55
2018-04-17T03:13:18.762Z,101161.55
2018-04-17T03:14:25.198Z,101164.53
2018-04-17T03:15:31.624Z,101170.11
2018-04-17T03:16:43.547Z,101169.98
2018-04-17T03:17:52.819Z,101167.72
2018-04-17T03:18:59.978Z,101170.72
2018-04-17T03:20:06.314Z,101172.42
2018-04-17T03:21:12.767Z,101176.47
2018-04-17T03:22:19.554Z,101174.27
2018-04-17T03:23:28.453Z,101177.55
2018-04-17T03:24:36.132Z,101179.09
2018-04-17T03:25:43.024Z,101179.59
2018-04-17T03:26:50.069Z,101180.75
2018-04-17T03:27:56.482Z,101181.12
2018-04-17T03:29:03.214Z,101178.09
2018-04-17T03:30:09.807Z,101182.79
2018-04-17T03:31:16.503Z,101182.48
2018-04-17T03:32:23.054Z,101179.17
2018-04-17T03:33:31.717Z,101177.03
2018-04-17T03:34:37.927Z,101181.80
2018-04-17T03:35:44.922Z,101177.30
2018-04-17T03:36:51.475Z,101179.39
2018-04-17T03:37:59.136Z,101178.41
2018-04-17T03:39:06.267Z,101180.41
2018-04-17T03:40:12.758Z,101184.76
2018-04-17T03:41:19.498Z,101186.81
2018-04-17T03:42:26.098Z,101185.31
2018-04-17T03:43:32.620Z,101186.84
2018-04-17T03:44:39.496Z,101186.72
2018-04-17T03:45:45.539Z,101189.06
2018-04-17T03:46:52.624Z,101193.17
2018-04-17T03:47:58.683Z,101195.35
2018-04-17T03:49:05.742Z,101191.78
2018-04-17T03:50:13.057Z,101192.17
2018-04-17T03:51:20.518Z,101196.58
2018-04-17T03:52:26.922Z,101194.39
2018-04-17T03:53:34.129Z,101195.23
2018-04-17T03:54:42.855Z,101201.80
2018-04-17T03:55:49.726Z,101201.09
2018-04-17T03:56:56.443Z,101202.05
2018-04-17T03:58:03.328Z,101200.29
2018-04-17T03:59:09.784Z,101205.64
2018-04-17T04:00:16.790Z,101205.45
2018-04-17T04:01:24.150Z,101207.11
2018-04-17T04:02:30.661Z,101206.66
2018-04-17T04:03:37.414Z,101204.78
2018-04-17T04:04:43.796Z,101216.81
2018-04-17T04:05:50.218Z,101210.55
2018-04-17T04:06:57.355Z,101214.32
2018-04-17T04:08:04.364Z,101217.41
2018-04-17T04:09:11.244Z,101226.98
2018-04-17T04:10:19.043Z,101227.22
2018-04-17T04:11:25.350Z,101223.00
2018-04-17T04:12:31.774Z,101228.11
2018-04-17T04:13:39.688Z,101224.27
2018-04-17T04:14:46.753Z,101228.94
2018-04-17T04:15:53.295Z,101230.42
2018-04-17T04:17:10.530Z,101233.17
2018-04-17T04:18:27.932Z,101234.64
2018-04-17T04:19:45.971Z,101234.53
2018-04-17T04:21:03.562Z,101239.72
2018-04-17T04:22:20.929Z,101237.32
2018-04-17T04:25:48.759Z,101237.83
2018-04-17T04:27:08.131Z,101249.72
2018-04-17T04:28:15.175Z,101245.80
2018-04-17T04:29:21.696Z,101245.86
2018-04-17T04:30:28.105Z,101248.22
2018-04-17T04:31:35.042Z,101243.67
2018-04-17T04:32:41.446Z,101249.64
2018-04-17T04:33:47.861Z,101247.97
2018-04-17T04:34:54.480Z,101253.30
2018-04-17T04:36:00.792Z,101252.95
2018-04-17T04:37:07.003Z,101249.09
2018-04-17T04:38:13.122Z,101254.86
2018-04-17T04:39:19.434Z,101256.96
2018-04-17T04:40:25.791Z,101261.34
2018-04-17T04:41:31.866Z,101261.78
2018-04-17T04:42:38.257Z,101260.05
2018-04-17T04:43:44.776Z,101266.52
2018-04-17T04:44:51.286Z,101270.70
2018-04-17T04:45:58.402Z,101268.30
2018-04-17T04:47:04.832Z,101268.93
2018-04-17T04:48:11.145Z,101271.91
2018-04-17T04:49:17.713Z,101278.80
2018-04-17T04:50:24.111Z,101280.41
2018-04-17T04:51:30.557Z,101285.88
2018-04-17T04:52:37.298Z,101284.06
2018-04-17T04:53:44.309Z,101287.75
2018-04-17T04:54:50.859Z,101287.22
2018-04-17T04:55:57.388Z,101289.75
2018-04-17T04:57:03.900Z,101287.61
2018-04-17T04:58:10.400Z,101289.07
2018-04-17T04:59:16.822Z,101294.69
2018-04-17T05:00:23.339Z,101294.42
2018-04-17T05:01:32.556Z,101295.99
2018-04-17T05:02:40.627Z,101294.81
2018-04-17T05:03:47.291Z,101296.63
2018-04-17T05:04:53.938Z,101294.00
2018-04-17T05:06:00.432Z,101300.02
2018-04-17T05:07:06.941Z,101303.08
2018-04-17T05:08:13.354Z,101303.78
2018-04-17T05:09:19.866Z,101314.72
2018-04-17T05:10:26.385Z,101304.81
2018-04-17T05:11:33.530Z,101311.36
2018-04-17T05:12:40.239Z,101315.67
2018-04-17T05:13:46.345Z,101315.91
2018-04-17T05:14:52.954Z,101317.16
2018-04-17T05:15:59.584Z,101320.53
2018-04-17T05:17:05.898Z,101322.64
2018-04-17T05:18:12.308Z,101324.89
2018-04-17T05:19:19.023Z,101331.34
2018-04-17T05:20:25.956Z,101333.90
2018-04-17T05:21:31.958Z,101339.50
2018-04-17T05:22:42.205Z,101342.39
2018-04-17T05:23:48.954Z,101343.37
2018-04-17T05:24:55.709Z,101344.52
2018-04-17T05:26:02.028Z,101353.94
2018-04-17T05:27:08.529Z,101354.77
2018-04-17T05:28:14.944Z,101354.58
2018-04-17T05:29:21.876Z,101352.12
2018-04-17T05:30:28.311Z,101353.94
2018-04-17T05:31:34.810Z,101361.33
2018-04-17T05:32:41.339Z,101358.22
2018-04-17T05:33:47.941Z,101364.52
2018-04-17T05:34:55.075Z,101361.27
2018-04-17T05:36:01.494Z,101360.71
2018-04-17T05:37:08.589Z,101370.98
2018-04-17T05:38:15.128Z,101373.55
2018-04-17T05:39:22.166Z,101375.70
2018-04-17T05:40:29.394Z,101368.84
2018-04-17T05:41:35.904Z,101370.15
2018-04-17T05:42:42.477Z,101372.33
2018-04-17T05:43:49.414Z,101376.27
2018-04-17T05:44:55.976Z,101381.45
2018-04-17T05:46:02.452Z,101376.67
2018-04-17T05:47:09.099Z,101376.11
2018-04-17T05:48:15.364Z,101379.80
2018-04-17T05:49:21.965Z,101382.77
2018-04-17T05:50:28.320Z,101384.41
2018-04-17T05:51:34.968Z,101382.13
2018-04-17T05:52:41.371Z,101382.04
2018-04-17T05:53:47.656Z,101388.71
2018-04-17T05:54:53.958Z,101389.95
2018-04-17T05:56:00.306Z,101393.91
2018-04-17T05:57:06.997Z,101398.55
2018-04-17T05:58:13.351Z,101400.22
2018-04-17T05:59:21.613Z,101399.81
2018-04-17T06:00:29.214Z,101401.77
2018-04-17T06:01:35.508Z,101406.50
2018-04-17T06:02:41.855Z,101409.33
2018-04-17T06:03:48.740Z,101408.86
2018-04-17T06:04:55.045Z,101412.73
2018-04-17T06:06:02.056Z,101406.70
2018-04-17T06:07:08.942Z,101407.89
2018-04-17T06:08:15.240Z,101408.17
2018-04-17T06:09:22.116Z,101407.17
2018-04-17T06:10:28.469Z,101412.28
2018-04-17T06:11:34.765Z,101407.17
2018-04-17T06:12:41.102Z,101414.53
2018-04-17T06:13:47.405Z,101413.81
2018-04-17T06:14:56.286Z,101415.17
2018-04-17T06:16:03.725Z,101422.88
2018-04-17T06:17:10.370Z,101423.25
2018-04-17T06:18:16.648Z,101421.52
2018-04-17T06:19:22.942Z,101426.97
2018-04-17T06:20:28.819Z,101427.30
2018-04-17T06:21:35.785Z,101433.03
2018-04-17T06:22:42.143Z,101428.63
2018-04-17T06:23:48.371Z,101431.47
2018-04-17T06:24:54.608Z,101440.98
2018-04-17T06:26:01.147Z,101444.07
2018-04-17T06:27:08.391Z,101439.12
2018-04-17T06:28:14.679Z,101438.35
2018-04-17T06:29:21.005Z,101445.05
2018-04-17T06:30:29.413Z,101446.98
2018-04-17T06:31:36.752Z,101452.16
2018-04-17T06:32:42.971Z,101448.70
2018-04-17T06:33:49.327Z,101448.16
2018-04-17T06:34:55.521Z,101451.27
2018-04-17T06:36:01.788Z,101457.84
2018-04-17T06:37:07.999Z,101453.55
2018-04-17T06:38:14.240Z,101462.96
2018-04-17T06:39:20.535Z,101458.17
2018-04-17T06:40:26.789Z,101461.91
2018-04-17T06:41:33.647Z,101463.92
2018-04-17T06:42:39.903Z,101463.59
2018-04-17T06:43:45.998Z,101459.50
2018-04-17T06:44:52.313Z,101466.66
2018-04-17T06:45:58.623Z,101463.27
2018-04-17T06:47:06.338Z,101467.02
2018-04-17T06:48:12.758Z,101473.67
2018-04-17T06:49:19.003Z,101467.70
2018-04-17T06:50:26.383Z,101473.37
2018-04-17T06:51:32.639Z,101470.66
2018-04-17T06:52:38.999Z,101476.75
2018-04-17T06:53:45.492Z,101478.04
2018-04-17T06:54:51.801Z,101475.95
2018-04-17T06:55:58.578Z,101480.97
2018-04-17T06:57:04.788Z,101486.45
2018-04-17T06:58:10.767Z,101487.26
2018-04-17T06:59:17.026Z,101482.59
2018-04-17T07:00:23.326Z,101492.69
2018-04-17T07:01:29.508Z,101487.82
2018-04-17T07:02:35.778Z,101486.53
2018-04-17T07:03:42.075Z,101487.42
2018-04-17T07:04:48.383Z,101487.69
2018-04-17T07:05:54.677Z,101492.73
2018-04-17T07:07:00.899Z,101496.37
2018-04-17T07:08:07.780Z,101497.70
2018-04-17T07:09:14.052Z,101503.63
2018-04-17T07:10:20.999Z,101501.59
2018-04-17T07:11:27.309Z,101505.66
2018-04-17T07:12:33.609Z,101506.64
2018-04-17T07:13:39.920Z,101506.29
2018-04-17T07:14:46.235Z,101507.36
2018-04-17T07:15:52.509Z,101507.91
2018-04-17T07:16:58.845Z,101512.50
2018-04-17T07:18:04.940Z,101505.20
2018-04-17T07:19:10.965Z,101509.95
2018-04-17T07:20:17.299Z,101511.05
2018-04-17T07:21:23.563Z,101512.91
2018-04-17T07:22:32.371Z,101514.63
2018-04-17T07:23:39.124Z,101513.97
2018-04-17T07:24:46.197Z,101515.06
2018-04-17T07:25:52.178Z,101518.70
2018-04-17T07:26:58.406Z,101524.48
2018-04-17T07:28:07.120Z,101524.60
2018-04-17T07:29:15.047Z,101524.02
2018-04-17T07:30:22.044Z,101527.30
2018-04-17T07:31:28.331Z,101530.48
2018-04-17T07:32:34.662Z,101532.58
2018-04-17T07:33:41.007Z,101532.67
2018-04-17T07:34:47.287Z,101538.91
2018-04-17T07:35:53.605Z,101537.75
2018-04-17T07:36:59.919Z,101530.83
2018-04-17T07:38:08.919Z,101530.30
2018-04-17T07:39:14.874Z,101531.67
2018-04-17T07:40:21.200Z,101532.23
2018-04-17T07:41:27.434Z,101534.98
2018-04-17T07:42:34.367Z,101536.55
2018-04-17T07:43:40.754Z,101543.09
2018-04-17T07:44:47.079Z,101538.55
2018-04-17T07:45:53.404Z,101535.07
2018-04-17T07:47:10.879Z,101537.71
2018-04-17T07:48:31.999Z,101541.54
2018-04-17T07:49:37.718Z,101543.29
2018-04-17T07:50:44.187Z,101548.30
2018-04-17T07:51:50.516Z,101551.39
2018-04-17T07:52:56.806Z,101542.25
2018-04-17T07:54:03.078Z,101549.64
2018-04-17T07:55:08.685Z,101542.72
2018-04-17T07:56:15.465Z,101548.86
2018-04-17T07:57:21.773Z,101545.42
2018-04-17T07:58:27.963Z,101550.80
2018-04-17T07:59:35.031Z,101542.28
2018-04-17T08:00:41.334Z,101549.19
2018-04-17T08:01:47.623Z,101542.23
2018-04-17T08:02:54.639Z,101542.22
2018-04-17T08:04:02.179Z,101547.54
2018-04-17T08:05:10.186Z,101540.86
2018-04-17T08:06:16.536Z,101546.54
2018-04-17T08:07:22.939Z,101546.95
2018-04-17T08:08:28.892Z,101550.59
2018-04-17T08:09:35.246Z,101553.67
2018-04-17T08:10:43.427Z,101554.02
2018-04-17T08:11:51.850Z,101551.06
2018-04-17T08:12:58.354Z,101550.38
2018-04-17T08:14:05.246Z,101546.64
2018-04-17T08:15:11.589Z,101552.23
2018-04-17T08:16:18.353Z,101551.80
2018-04-17T08:17:24.599Z,101558.11
2018-04-17T08:18:30.910Z,101546.75
2018-04-17T08:19:38.920Z,101559.31
2018-04-17T08:20:46.146Z,101560.17
2018-04-17T08:21:52.433Z,101554.85
2018-04-17T08:22:58.732Z,101556.32
2018-04-17T08:24:04.679Z,101553.58
2018-04-17T08:25:11.171Z,101558.36
2018-04-17T08:26:17.421Z,101558.59
2018-04-17T08:27:23.647Z,101557.72
2018-04-17T08:28:29.871Z,101560.45
2018-04-17T08:29:36.206Z,101554.91
2018-04-17T08:30:42.490Z,101561.72
2018-04-17T08:31:48.811Z,101557.44
2018-04-17T08:32:55.109Z,101555.36
2018-04-17T08:34:01.420Z,101553.72
2018-04-17T08:35:09.222Z,101556.42
2018-04-17T08:36:16.439Z,101552.30
2018-04-17T08:37:22.385Z,101553.88
2018-04-17T08:38:28.599Z,101554.58
2018-04-17T08:39:34.842Z,101561.37
2018-04-17T08:40:41.795Z,101559.26
2018-04-17T08:41:48.498Z,101560.84
2018-04-17T08:42:54.814Z,101560.59
2018-04-17T08:44:01.116Z,101558.30
2018-04-17T08:45:07.418Z,101560.41
2018-04-17T08:46:13.657Z,101563.75
2018-04-17T08:47:19.926Z,101560.94
2018-04-17T08:48:26.129Z,101557.95
2018-04-17T08:49:32.347Z,101563.98
2018-04-17T08:50:38.709Z,101561.31
2018-04-17T08:51:44.989Z,101562.55
2018-04-17T08:52:51.263Z,101563.47
2018-04-17T08:53:57.488Z,101565.00
2018-04-17T08:55:04.583Z,101563.65
2018-04-17T08:56:11.354Z,101563.81
2018-04-17T08:57:17.656Z,101564.77
2018-04-17T08:58:23.838Z,101566.63
2018-04-17T08:59:30.086Z,101567.00
2018-04-17T09:00:36.414Z,101564.43
2018-04-17T09:01:42.690Z,101560.62
2018-04-17T09:02:49.732Z,101571.27
2018-04-17T09:03:55.746Z,101570.41
2018-04-17T09:05:02.048Z,101567.94
2018-04-17T09:06:08.379Z,101574.38
2018-04-17T09:07:14.956Z,101567.36
2018-04-17T09:08:21.170Z,101562.39
2018-04-17T09:09:27.495Z,101561.39
2018-04-17T09:10:33.751Z,101562.66
2018-04-17T09:11:41.257Z,101560.10
2018-04-17T09:12:47.674Z,101563.64
2018-04-17T09:13:54.109Z,101567.27
2018-04-17T09:15:01.745Z,101560.14
2018-04-17T09:16:08.073Z,101559.42
2018-04-17T09:17:14.324Z,101567.81
2018-04-17T09:18:20.529Z,101564.92
2018-04-17T09:19:26.764Z,101561.81
2018-04-17T09:20:33.411Z,101563.78
2018-04-17T09:21:39.694Z,101561.33
2018-04-17T09:22:45.888Z,101562.05
2018-04-17T09:23:52.135Z,101564.88
2018-04-17T09:24:58.615Z,101568.05
2018-04-17T09:26:04.492Z,101566.03
2018-04-17T09:27:15.240Z,101571.74
2018-04-17T09:28:21.409Z,101568.03
2018-04-17T09:29:27.635Z,101562.50
2018-04-17T09:30:33.894Z,101565.15
2018-04-17T09:31:40.179Z,101568.59
2018-04-17T09:32:46.458Z,101569.97
2018-04-17T09:33:52.703Z,101574.06
2018-04-17T09:34:59.639Z,101575.63
2018-04-17T09:36:05.778Z,101576.20
2018-04-17T09:37:12.831Z,101578.25
2018-04-17T09:38:19.158Z,101580.33
2018-04-17T09:39:25.471Z,101581.05
2018-04-17T09:40:31.690Z,101578.78
2018-04-17T09:41:37.791Z,101578.31
2018-04-17T09:42:45.035Z,101578.55
2018-04-17T09:43:52.400Z,101578.68
2018-04-17T09:44:58.680Z,101579.95
2018-04-17T09:46:04.903Z,101582.75
2018-04-17T09:47:11.195Z,101590.39
2018-04-17T09:48:17.500Z,101585.02
2018-04-17T09:49:23.730Z,101577.97
2018-04-17T09:50:30.086Z,101583.89
2018-04-17T09:51:36.546Z,101586.01
2018-04-17T09:52:42.764Z,101587.28
2018-04-17T09:53:49.058Z,101589.48
2018-04-17T09:54:55.386Z,101586.34
2018-04-17T09:56:02.173Z,101585.48
2018-04-17T09:57:08.398Z,101583.03
2018-04-17T09:58:14.620Z,101584.45
2018-04-17T09:59:20.885Z,101586.30
2018-04-17T10:00:26.894Z,101585.56
2018-04-17T10:01:33.896Z,101584.88
2018-04-17T10:02:40.186Z,101584.66
2018-04-17T10:03:46.961Z,101585.41
2018-04-17T10:04:53.914Z,101582.01
2018-04-17T10:06:01.028Z,101578.81
2018-04-17T10:07:08.531Z,101586.52
2018-04-17T10:08:15.856Z,101577.34
2018-04-17T10:09:23.101Z,101578.15
2018-04-17T10:10:30.133Z,101581.77
2018-04-17T10:11:37.394Z,101576.69
2018-04-17T10:12:44.321Z,101576.28
2018-04-17T10:13:51.797Z,101574.99
2018-04-17T10:14:59.891Z,101572.63
2018-04-17T10:16:07.555Z,101571.52
2018-04-17T10:17:16.788Z,101576.88
2018-04-17T10:18:28.465Z,101568.93
2018-04-17T10:19:35.675Z,101577.45
2018-04-17T10:20:42.440Z,101575.48
2018-04-17T10:21:48.875Z,101575.86
2018-04-17T10:22:56.828Z,101574.16
2018-04-17T10:24:03.679Z,101576.14
2018-04-17T10:25:10.810Z,101573.06
2018-04-17T10:26:17.998Z,101575.41
2018-04-17T10:27:24.904Z,101574.48
2018-04-17T10:28:31.399Z,101573.90
2018-04-17T10:29:41.896Z,101575.32
2018-04-17T10:30:49.261Z,101577.05
2018-04-17T10:31:56.189Z,101573.34
2018-04-17T10:33:04.456Z,101576.02
2018-04-17T10:34:11.837Z,101572.91
2018-04-17T10:35:18.582Z,101570.52
2018-04-17T10:36:25.375Z,101570.02
2018-04-17T10:37:33.012Z,101576.13
2018-04-17T10:38:43.848Z,101570.75
2018-04-17T10:39:51.817Z,101574.33
2018-04-17T10:41:00.320Z,101569.16
2018-04-17T10:42:07.398Z,101571.56
2018-04-17T10:43:14.547Z,101565.30
2018-04-17T10:44:21.476Z,101566.03
2018-04-17T10:45:28.516Z,101566.07
2018-04-17T10:46:35.908Z,101564.72
2018-04-17T10:47:42.877Z,101562.99
2018-04-17T10:48:49.723Z,101561.55
2018-04-17T10:49:56.623Z,101559.00
2018-04-17T10:51:02.857Z,101560.70
2018-04-17T10:52:09.113Z,101555.39
2018-04-17T10:53:16.211Z,101561.66
2018-04-17T10:54:24.436Z,101552.35
2018-04-17T10:55:33.771Z,101553.36
2018-04-17T10:56:39.991Z,101554.17
2018-04-17T10:57:46.290Z,101549.61
2018-04-17T10:58:53.226Z,101547.05
2018-04-17T10:59:59.820Z,101554.72
2018-04-17T11:01:05.639Z,101549.97
2018-04-17T11:02:11.959Z,101548.72
2018-04-17T11:03:18.628Z,101547.88
2018-04-17T11:04:25.079Z,101547.56
2018-04-17T11:05:31.435Z,101549.92
2018-04-17T11:06:38.358Z,101545.59
2018-04-17T11:07:45.696Z,101546.81
2018-04-17T11:08:52.424Z,101553.00
2018-04-17T11:09:58.770Z,101546.08
2018-04-17T11:11:07.841Z,101549.08
2018-04-17T11:12:14.944Z,101555.77
2018-04-17T11:13:21.219Z,101553.56
2018-04-17T11:14:27.501Z,101548.14
2018-04-17T11:15:33.732Z,101553.84
2018-04-17T11:16:40.317Z,101546.47
2018-04-17T11:17:47.045Z,101546.23
2018-04-17T11:18:59.409Z,101552.23
2018-04-17T11:20:05.702Z,101544.22
2018-04-17T11:21:12.410Z,101547.09
2018-04-17T11:22:18.679Z,101546.45
2018-04-17T11:23:24.966Z,101543.90
2018-04-17T11:24:31.267Z,101544.69
2018-04-17T11:25:38.410Z,101553.84
2018-04-17T11:26:44.674Z,101551.36
2018-04-17T11:27:50.937Z,101546.51
2018-04-17T11:28:57.219Z,101548.64
2018-04-17T11:30:03.436Z,101548.59
2018-04-17T11:31:09.752Z,101548.61
2018-04-17T11:32:16.082Z,101546.25
2018-04-17T11:33:22.813Z,101545.54
2018-04-17T11:34:29.142Z,101549.97
2018-04-17T11:35:36.680Z,101541.72
2018-04-17T11:36:42.935Z,101546.96
2018-04-17T11:37:49.171Z,101542.48
2018-04-17T11:38:55.568Z,101544.55
2018-04-17T11:40:01.250Z,101550.45
2018-04-17T11:41:07.602Z,101546.77
2018-04-17T11:42:15.286Z,101554.53
2018-04-17T11:43:22.542Z,101554.63
2018-04-17T11:44:28.787Z,101557.44
2018-04-17T11:45:35.082Z,101553.88
2018-04-17T11:46:41.408Z,101550.58
2018-04-17T11:47:47.730Z,101552.52
2018-04-17T11:48:57.210Z,101547.61
2018-04-17T11:50:03.511Z,101554.31
2018-04-17T11:51:09.888Z,101552.42
2018-04-17T11:52:16.443Z,101554.66
2018-04-17T11:53:22.779Z,101553.88
2018-04-17T11:54:29.052Z,101555.03
2018-04-17T11:55:35.300Z,101552.80
2018-04-17T11:56:41.581Z,101550.87
2018-04-17T11:57:49.616Z,101549.08
2018-04-17T11:58:57.619Z,101548.39
2018-04-17T12:00:04.258Z,101546.23
2018-04-17T12:01:10.513Z,101548.61
2018-04-17T12:02:20.116Z,101549.58
2018-04-17T12:03:28.603Z,101550.64
2018-04-17T12:04:34.864Z,101558.70
2018-04-17T12:05:41.172Z,101565.69
2018-04-17T12:06:47.169Z,101562.65
2018-04-17T12:07:53.162Z,101554.67
2018-04-17T12:08:59.920Z,101551.77
2018-04-17T12:10:05.995Z,101554.55
2018-04-17T12:11:12.740Z,101553.38
2018-04-17T12:12:19.162Z,101548.34
2018-04-17T12:13:27.832Z,101552.20
2018-04-17T12:14:34.857Z,101551.59
2018-04-17T12:15:41.193Z,101551.98
2018-04-17T12:16:47.507Z,101553.28
2018-04-17T12:17:53.888Z,101550.52
2018-04-17T12:18:59.986Z,101547.70
2018-04-17T12:20:06.412Z,101550.12
2018-04-17T12:21:12.744Z,101555.16
2018-04-17T12:22:19.081Z,101554.83
2018-04-17T12:23:25.512Z,101559.13
2018-04-17T12:24:32.943Z,101550.94
2018-04-17T12:25:39.203Z,101555.69
2018-04-17T12:26:45.508Z,101553.06
2018-04-17T12:27:51.865Z,101552.12
2018-04-17T12:28:59.938Z,101555.64
2018-04-17T12:30:06.190Z,101550.72
2018-04-17T12:31:12.220Z,101546.05
2018-04-17T12:32:18.478Z,101550.00
2018-04-17T12:33:25.080Z,101547.81
2018-04-17T12:34:31.631Z,101554.50
2018-04-17T12:35:37.857Z,101550.41
2018-04-17T12:36:44.152Z,101548.27
2018-04-17T12:37:50.369Z,101545.28
2018-04-17T12:38:56.711Z,101545.22
2018-04-17T12:40:03.586Z,101543.81
2018-04-17T12:41:09.930Z,101543.35
2018-04-17T12:42:16.210Z,101535.28
2018-04-17T12:43:22.464Z,101529.25
2018-04-17T12:44:36.163Z,101529.77
2018-04-17T12:45:42.375Z,101522.52